sensor_id;sensor_type;location;lat;lon;timestamp;P1;durP1;ratioP1;P2;durP2;ratioP2
22883;SDS011;13386;24.786;110.488;2022-09-04T00:00:02;14.48;;;6.20;;
22883;SDS011;13386;24.786;110.488;2022-09-04T00:02:44;14.57;;;5.97;;
22883;SDS011;13386;24.786;110.488;2022-09-04T00:05:21;15.55;;;5.00;;
22883;SDS011;13386;24.786;110.488;2022-09-04T00:08:01;14.30;;;5.50;;
22883;SDS011;13386;24.786;110.488;2022-09-04T00:10:35;17.63;;;5.78;;
22883;SDS011;13386;24.786;110.488;2022-09-04T00:13:08;13.27;;;5.50;;
22883;SDS011;13386;24.786;110.488;2022-09-04T00:15:42;14.70;;;5.82;;
22883;SDS011;13386;24.786;110.488;2022-09-04T00:18:14;12.02;;;5.22;;
22883;SDS011;13386;24.786;110.488;2022-09-04T00:20:52;13.27;;;5.25;;
22883;SDS011;13386;24.786;110.488;2022-09-04T00:23:26;11.77;;;4.72;;
22883;SDS011;13386;24.786;110.488;2022-09-04T00:26:02;11.98;;;5.05;;
22883;SDS011;13386;24.786;110.488;2022-09-04T00:28:36;11.25;;;4.70;;
22883;SDS011;13386;24.786;110.488;2022-09-04T00:31:11;14.32;;;4.85;;
22883;SDS011;13386;24.786;110.488;2022-09-04T00:33:46;14.75;;;5.05;;
22883;SDS011;13386;24.786;110.488;2022-09-04T00:36:22;12.43;;;5.00;;
22883;SDS011;13386;24.786;110.488;2022-09-04T00:38:54;15.43;;;5.20;;
22883;SDS011;13386;24.786;110.488;2022-09-04T00:41:27;9.02;;;4.00;;
22883;SDS011;13386;24.786;110.488;2022-09-04T00:44:19;12.15;;;4.88;;
22883;SDS011;13386;24.786;110.488;2022-09-04T00:49:48;17.30;;;4.55;;
22883;SDS011;13386;24.786;110.488;2022-09-04T00:52:32;11.60;;;4.90;;
22883;SDS011;13386;24.786;110.488;2022-09-04T00:55:09;9.38;;;4.10;;
22883;SDS011;13386;24.786;110.488;2022-09-04T00:57:54;9.15;;;4.25;;
22883;SDS011;13386;24.786;110.488;2022-09-04T01:00:29;10.40;;;4.23;;
22883;SDS011;13386;24.786;110.488;2022-09-04T01:06:00;11.52;;;4.45;;
22883;SDS011;13386;24.786;110.488;2022-09-04T01:08:37;10.45;;;4.00;;
22883;SDS011;13386;24.786;110.488;2022-09-04T01:11:13;9.07;;;3.97;;
22883;SDS011;13386;24.786;110.488;2022-09-04T01:13:46;9.98;;;4.10;;
22883;SDS011;13386;24.786;110.488;2022-09-04T01:16:21;10.25;;;3.80;;
22883;SDS011;13386;24.786;110.488;2022-09-04T01:18:55;10.63;;;3.63;;
22883;SDS011;13386;24.786;110.488;2022-09-04T01:24:31;11.07;;;3.97;;
22883;SDS011;13386;24.786;110.488;2022-09-04T01:27:07;8.80;;;3.55;;
22883;SDS011;13386;24.786;110.488;2022-09-04T01:29:40;12.95;;;4.18;;
22883;SDS011;13386;24.786;110.488;2022-09-04T01:32:15;12.35;;;4.03;;
22883;SDS011;13386;24.786;110.488;2022-09-04T01:34:51;10.02;;;3.88;;
22883;SDS011;13386;24.786;110.488;2022-09-04T01:37:38;11.40;;;3.97;;
22883;SDS011;13386;24.786;110.488;2022-09-04T01:40:16;14.50;;;4.28;;
22883;SDS011;13386;24.786;110.488;2022-09-04T01:42:50;14.63;;;4.32;;
22883;SDS011;13386;24.786;110.488;2022-09-04T01:45:26;9.25;;;3.92;;
22883;SDS011;13386;24.786;110.488;2022-09-04T01:47:59;8.32;;;3.72;;
22883;SDS011;13386;24.786;110.488;2022-09-04T01:50:34;8.10;;;3.50;;
22883;SDS011;13386;24.786;110.488;2022-09-04T01:53:08;8.60;;;3.45;;
22883;SDS011;13386;24.786;110.488;2022-09-04T01:55:43;12.25;;;3.80;;
22883;SDS011;13386;24.786;110.488;2022-09-04T01:58:21;7.18;;;3.17;;
22883;SDS011;13386;24.786;110.488;2022-09-04T02:00:55;9.88;;;3.67;;
22883;SDS011;13386;24.786;110.488;2022-09-04T02:03:31;9.70;;;3.72;;
22883;SDS011;13386;24.786;110.488;2022-09-04T02:06:10;7.95;;;3.35;;
22883;SDS011;13386;24.786;110.488;2022-09-04T02:08:47;7.30;;;3.28;;
22883;SDS011;13386;24.786;110.488;2022-09-04T02:11:23;10.05;;;3.40;;
22883;SDS011;13386;24.786;110.488;2022-09-04T02:14:09;7.63;;;3.55;;
22883;SDS011;13386;24.786;110.488;2022-09-04T02:16:44;10.05;;;3.33;;
22883;SDS011;13386;24.786;110.488;2022-09-04T02:21:47;7.75;;;3.33;;
22883;SDS011;13386;24.786;110.488;2022-09-04T02:24:19;9.82;;;3.35;;
22883;SDS011;13386;24.786;110.488;2022-09-04T02:26:54;6.60;;;2.97;;
22883;SDS011;13386;24.786;110.488;2022-09-04T02:29:27;7.32;;;3.33;;
22883;SDS011;13386;24.786;110.488;2022-09-04T02:32:04;8.45;;;3.75;;
22883;SDS011;13386;24.786;110.488;2022-09-04T02:34:38;10.50;;;2.97;;
22883;SDS011;13386;24.786;110.488;2022-09-04T02:37:12;6.65;;;3.40;;
22883;SDS011;13386;24.786;110.488;2022-09-04T02:39:47;10.65;;;3.50;;
22883;SDS011;13386;24.786;110.488;2022-09-04T02:42:23;7.28;;;3.40;;
22883;SDS011;13386;24.786;110.488;2022-09-04T02:47:30;12.00;;;3.70;;
22883;SDS011;13386;24.786;110.488;2022-09-04T02:50:03;11.65;;;3.65;;
22883;SDS011;13386;24.786;110.488;2022-09-04T02:52:43;10.30;;;3.35;;
22883;SDS011;13386;24.786;110.488;2022-09-04T02:55:19;8.70;;;3.30;;
22883;SDS011;13386;24.786;110.488;2022-09-04T02:57:57;7.72;;;3.45;;
22883;SDS011;13386;24.786;110.488;2022-09-04T03:00:32;10.20;;;3.58;;
22883;SDS011;13386;24.786;110.488;2022-09-04T03:03:10;8.65;;;3.33;;
22883;SDS011;13386;24.786;110.488;2022-09-04T03:05:43;8.98;;;3.42;;
22883;SDS011;13386;24.786;110.488;2022-09-04T03:08:17;6.57;;;3.28;;
22883;SDS011;13386;24.786;110.488;2022-09-04T03:10:51;9.95;;;3.72;;
22883;SDS011;13386;24.786;110.488;2022-09-04T03:13:25;9.45;;;3.35;;
22883;SDS011;13386;24.786;110.488;2022-09-04T03:16:01;8.05;;;3.50;;
22883;SDS011;13386;24.786;110.488;2022-09-04T03:18:50;7.88;;;3.72;;
22883;SDS011;13386;24.786;110.488;2022-09-04T03:21:22;9.38;;;3.78;;
22883;SDS011;13386;24.786;110.488;2022-09-04T03:23:54;9.43;;;3.35;;
22883;SDS011;13386;24.786;110.488;2022-09-04T03:26:26;9.50;;;3.30;;
22883;SDS011;13386;24.786;110.488;2022-09-04T03:29:00;8.13;;;3.50;;
22883;SDS011;13386;24.786;110.488;2022-09-04T03:34:10;7.00;;;3.30;;
22883;SDS011;13386;24.786;110.488;2022-09-04T03:36:45;7.18;;;3.30;;
22883;SDS011;13386;24.786;110.488;2022-09-04T03:39:19;11.27;;;4.30;;
22883;SDS011;13386;24.786;110.488;2022-09-04T03:41:57;8.98;;;3.38;;
22883;SDS011;13386;24.786;110.488;2022-09-04T03:44:33;8.95;;;3.40;;
22883;SDS011;13386;24.786;110.488;2022-09-04T03:47:17;7.57;;;3.78;;
22883;SDS011;13386;24.786;110.488;2022-09-04T03:49:53;10.38;;;3.50;;
22883;SDS011;13386;24.786;110.488;2022-09-04T03:52:29;9.60;;;3.90;;
22883;SDS011;13386;24.786;110.488;2022-09-04T03:55:10;7.97;;;3.50;;
22883;SDS011;13386;24.786;110.488;2022-09-04T03:57:52;9.27;;;3.47;;
22883;SDS011;13386;24.786;110.488;2022-09-04T04:00:28;8.60;;;3.78;;
22883;SDS011;13386;24.786;110.488;2022-09-04T04:03:08;11.07;;;3.85;;
22883;SDS011;13386;24.786;110.488;2022-09-04T04:05:49;9.57;;;3.90;;
22883;SDS011;13386;24.786;110.488;2022-09-04T04:08:31;9.13;;;3.67;;
22883;SDS011;13386;24.786;110.488;2022-09-04T04:11:07;8.05;;;3.70;;
22883;SDS011;13386;24.786;110.488;2022-09-04T04:13:48;8.68;;;3.90;;
22883;SDS011;13386;24.786;110.488;2022-09-04T04:16:27;8.75;;;3.60;;
22883;SDS011;13386;24.786;110.488;2022-09-04T04:21:59;6.68;;;3.08;;
22883;SDS011;13386;24.786;110.488;2022-09-04T04:24:45;7.57;;;3.58;;
22883;SDS011;13386;24.786;110.488;2022-09-04T04:27:29;8.98;;;3.67;;
22883;SDS011;13386;24.786;110.488;2022-09-04T04:30:03;8.40;;;3.45;;
22883;SDS011;13386;24.786;110.488;2022-09-04T04:32:40;15.05;;;3.88;;
22883;SDS011;13386;24.786;110.488;2022-09-04T04:35:17;9.10;;;3.40;;
22883;SDS011;13386;24.786;110.488;2022-09-04T04:37:56;10.15;;;3.70;;
22883;SDS011;13386;24.786;110.488;2022-09-04T04:40:47;10.20;;;3.95;;
22883;SDS011;13386;24.786;110.488;2022-09-04T04:43:21;7.75;;;3.75;;
22883;SDS011;13386;24.786;110.488;2022-09-04T04:45:55;6.78;;;3.42;;
22883;SDS011;13386;24.786;110.488;2022-09-04T04:51:20;10.20;;;3.83;;
22883;SDS011;13386;24.786;110.488;2022-09-04T04:54:07;8.18;;;3.70;;
22883;SDS011;13386;24.786;110.488;2022-09-04T04:56:42;8.40;;;3.75;;
22883;SDS011;13386;24.786;110.488;2022-09-04T04:59:16;8.18;;;3.65;;
22883;SDS011;13386;24.786;110.488;2022-09-04T05:01:54;9.77;;;3.78;;
22883;SDS011;13386;24.786;110.488;2022-09-04T05:04:30;9.48;;;3.40;;
22883;SDS011;13386;24.786;110.488;2022-09-04T05:07:07;6.53;;;3.22;;
22883;SDS011;13386;24.786;110.488;2022-09-04T05:09:43;7.32;;;3.45;;
22883;SDS011;13386;24.786;110.488;2022-09-04T05:12:18;12.88;;;3.33;;
22883;SDS011;13386;24.786;110.488;2022-09-04T05:14:51;11.67;;;3.80;;
22883;SDS011;13386;24.786;110.488;2022-09-04T05:17:25;10.27;;;3.70;;
22883;SDS011;13386;24.786;110.488;2022-09-04T05:20:13;10.30;;;3.85;;
22883;SDS011;13386;24.786;110.488;2022-09-04T05:22:48;10.65;;;3.90;;
22883;SDS011;13386;24.786;110.488;2022-09-04T05:25:24;11.02;;;4.30;;
22883;SDS011;13386;24.786;110.488;2022-09-04T05:27:59;9.48;;;3.65;;
22883;SDS011;13386;24.786;110.488;2022-09-04T05:30:37;10.55;;;3.72;;
22883;SDS011;13386;24.786;110.488;2022-09-04T05:33:12;8.98;;;3.40;;
22883;SDS011;13386;24.786;110.488;2022-09-04T05:35:46;9.25;;;3.72;;
22883;SDS011;13386;24.786;110.488;2022-09-04T05:38:19;7.05;;;3.50;;
22883;SDS011;13386;24.786;110.488;2022-09-04T05:40:57;9.65;;;4.07;;
22883;SDS011;13386;24.786;110.488;2022-09-04T05:43:43;10.65;;;3.85;;
22883;SDS011;13386;24.786;110.488;2022-09-04T05:46:23;8.88;;;3.95;;
22883;SDS011;13386;24.786;110.488;2022-09-04T05:48:56;7.40;;;3.35;;
22883;SDS011;13386;24.786;110.488;2022-09-04T05:51:43;8.07;;;3.50;;
22883;SDS011;13386;24.786;110.488;2022-09-04T05:54:23;11.70;;;3.55;;
22883;SDS011;13386;24.786;110.488;2022-09-04T05:57:05;10.82;;;4.28;;
22883;SDS011;13386;24.786;110.488;2022-09-04T05:59:53;10.52;;;4.07;;
22883;SDS011;13386;24.786;110.488;2022-09-04T06:02:33;9.27;;;3.88;;
22883;SDS011;13386;24.786;110.488;2022-09-04T06:07:59;7.78;;;3.80;;
22883;SDS011;13386;24.786;110.488;2022-09-04T06:10:37;7.20;;;3.47;;
22883;SDS011;13386;24.786;110.488;2022-09-04T06:16:11;7.07;;;3.53;;
22883;SDS011;13386;24.786;110.488;2022-09-04T06:18:50;8.57;;;3.65;;
22883;SDS011;13386;24.786;110.488;2022-09-04T06:24:30;11.07;;;3.95;;
22883;SDS011;13386;24.786;110.488;2022-09-04T06:27:11;9.40;;;3.65;;
22883;SDS011;13386;24.786;110.488;2022-09-04T06:30:00;7.47;;;3.83;;
22883;SDS011;13386;24.786;110.488;2022-09-04T06:35:27;11.55;;;4.05;;
22883;SDS011;13386;24.786;110.488;2022-09-04T06:38:02;10.48;;;4.03;;
22883;SDS011;13386;24.786;110.488;2022-09-04T06:40:40;8.90;;;3.90;;
22883;SDS011;13386;24.786;110.488;2022-09-04T06:43:16;8.27;;;3.42;;
22883;SDS011;13386;24.786;110.488;2022-09-04T06:45:51;11.98;;;4.13;;
22883;SDS011;13386;24.786;110.488;2022-09-04T06:48:31;10.80;;;4.22;;
22883;SDS011;13386;24.786;110.488;2022-09-04T06:51:08;7.82;;;3.58;;
22883;SDS011;13386;24.786;110.488;2022-09-04T06:53:46;7.63;;;3.60;;
22883;SDS011;13386;24.786;110.488;2022-09-04T06:56:25;12.15;;;4.40;;
22883;SDS011;13386;24.786;110.488;2022-09-04T06:59:08;11.85;;;3.97;;
22883;SDS011;13386;24.786;110.488;2022-09-04T07:01:47;8.43;;;4.20;;
22883;SDS011;13386;24.786;110.488;2022-09-04T07:04:39;7.50;;;3.58;;
22883;SDS011;13386;24.786;110.488;2022-09-04T07:07:16;8.05;;;3.78;;
22883;SDS011;13386;24.786;110.488;2022-09-04T07:09:52;10.63;;;4.10;;
22883;SDS011;13386;24.786;110.488;2022-09-04T07:12:37;10.80;;;4.30;;
22883;SDS011;13386;24.786;110.488;2022-09-04T07:18:13;9.50;;;4.30;;
22883;SDS011;13386;24.786;110.488;2022-09-04T07:20:50;7.57;;;2.85;;
22883;SDS011;13386;24.786;110.488;2022-09-04T07:23:28;7.47;;;4.03;;
22883;SDS011;13386;24.786;110.488;2022-09-04T07:26:05;10.43;;;4.00;;
22883;SDS011;13386;24.786;110.488;2022-09-04T07:28:52;10.90;;;4.43;;
22883;SDS011;13386;24.786;110.488;2022-09-04T07:31:28;8.80;;;4.70;;
22883;SDS011;13386;24.786;110.488;2022-09-04T07:34:00;9.88;;;4.40;;
22883;SDS011;13386;24.786;110.488;2022-09-04T07:36:37;9.73;;;4.40;;
22883;SDS011;13386;24.786;110.488;2022-09-04T07:39:13;8.45;;;4.03;;
22883;SDS011;13386;24.786;110.488;2022-09-04T07:41:47;9.25;;;3.90;;
22883;SDS011;13386;24.786;110.488;2022-09-04T07:44:22;9.52;;;4.07;;
22883;SDS011;13386;24.786;110.488;2022-09-04T07:46:57;10.30;;;4.05;;
22883;SDS011;13386;24.786;110.488;2022-09-04T07:49:42;10.00;;;4.32;;
22883;SDS011;13386;24.786;110.488;2022-09-04T07:52:19;11.13;;;4.47;;
22883;SDS011;13386;24.786;110.488;2022-09-04T07:54:59;9.30;;;4.00;;
22883;SDS011;13386;24.786;110.488;2022-09-04T07:57:39;18.48;;;4.70;;
22883;SDS011;13386;24.786;110.488;2022-09-04T08:00:12;9.98;;;4.13;;
22883;SDS011;13386;24.786;110.488;2022-09-04T08:02:50;10.30;;;3.97;;
22883;SDS011;13386;24.786;110.488;2022-09-04T08:05:24;11.35;;;4.45;;
22883;SDS011;13386;24.786;110.488;2022-09-04T08:13:46;9.73;;;4.00;;
22883;SDS011;13386;24.786;110.488;2022-09-04T08:16:22;10.45;;;4.32;;
22883;SDS011;13386;24.786;110.488;2022-09-04T08:19:04;10.00;;;4.25;;
22883;SDS011;13386;24.786;110.488;2022-09-04T08:21:38;7.60;;;4.00;;
22883;SDS011;13386;24.786;110.488;2022-09-04T08:24:14;8.52;;;3.72;;
22883;SDS011;13386;24.786;110.488;2022-09-04T08:26:51;11.20;;;4.18;;
22883;SDS011;13386;24.786;110.488;2022-09-04T08:29:37;10.70;;;4.05;;
22883;SDS011;13386;24.786;110.488;2022-09-04T08:34:47;14.55;;;4.10;;
22883;SDS011;13386;24.786;110.488;2022-09-04T08:37:24;12.88;;;4.75;;
22883;SDS011;13386;24.786;110.488;2022-09-04T08:40:02;11.25;;;4.38;;
22883;SDS011;13386;24.786;110.488;2022-09-04T08:45:44;7.82;;;3.75;;
22883;SDS011;13386;24.786;110.488;2022-09-04T08:48:33;9.00;;;4.18;;
22883;SDS011;13386;24.786;110.488;2022-09-04T08:54:09;17.52;;;5.00;;
22883;SDS011;13386;24.786;110.488;2022-09-04T08:56:44;12.15;;;4.53;;
22883;SDS011;13386;24.786;110.488;2022-09-04T08:59:32;12.07;;;4.80;;
22883;SDS011;13386;24.786;110.488;2022-09-04T09:02:21;9.88;;;3.90;;
22883;SDS011;13386;24.786;110.488;2022-09-04T09:10:44;11.18;;;4.70;;
22883;SDS011;13386;24.786;110.488;2022-09-04T09:13:34;11.20;;;4.57;;
22883;SDS011;13386;24.786;110.488;2022-09-04T09:16:20;9.32;;;3.78;;
22883;SDS011;13386;24.786;110.488;2022-09-04T09:19:02;9.68;;;3.83;;
22883;SDS011;13386;24.786;110.488;2022-09-04T09:21:41;13.30;;;4.53;;
22883;SDS011;13386;24.786;110.488;2022-09-04T09:24:30;12.50;;;4.35;;
22883;SDS011;13386;24.786;110.488;2022-09-04T09:27:06;10.85;;;4.75;;
22883;SDS011;13386;24.786;110.488;2022-09-04T09:29:57;12.95;;;5.05;;
22883;SDS011;13386;24.786;110.488;2022-09-04T09:44:07;12.23;;;4.75;;
22883;SDS011;13386;24.786;110.488;2022-09-04T09:52:42;14.70;;;5.88;;
22883;SDS011;13386;24.786;110.488;2022-09-04T09:55:31;11.38;;;5.20;;
22883;SDS011;13386;24.786;110.488;2022-09-04T10:01:06;10.38;;;4.85;;
22883;SDS011;13386;24.786;110.488;2022-09-04T10:03:58;10.48;;;5.07;;
22883;SDS011;13386;24.786;110.488;2022-09-04T10:06:55;10.10;;;4.90;;
22883;SDS011;13386;24.786;110.488;2022-09-04T10:12:24;19.55;;;5.97;;
22883;SDS011;13386;24.786;110.488;2022-09-04T10:15:13;10.85;;;4.82;;
22883;SDS011;13386;24.786;110.488;2022-09-04T10:17:51;15.18;;;5.43;;
22883;SDS011;13386;24.786;110.488;2022-09-04T10:26:15;11.43;;;5.10;;
22883;SDS011;13386;24.786;110.488;2022-09-04T10:31:45;13.82;;;5.65;;
22883;SDS011;13386;24.786;110.488;2022-09-04T10:37:15;11.45;;;5.10;;
22883;SDS011;13386;24.786;110.488;2022-09-04T10:39:53;18.73;;;5.18;;
22883;SDS011;13386;24.786;110.488;2022-09-04T10:42:47;16.50;;;5.70;;
22883;SDS011;13386;24.786;110.488;2022-09-04T10:45:24;12.55;;;5.90;;
22883;SDS011;13386;24.786;110.488;2022-09-04T10:48:09;33.85;;;9.85;;
22883;SDS011;13386;24.786;110.488;2022-09-04T10:51:03;22.13;;;8.73;;
22883;SDS011;13386;24.786;110.488;2022-09-04T10:53:41;28.15;;;9.07;;
22883;SDS011;13386;24.786;110.488;2022-09-04T10:56:22;20.88;;;7.30;;
22883;SDS011;13386;24.786;110.488;2022-09-04T10:59:03;56.40;;;14.50;;
22883;SDS011;13386;24.786;110.488;2022-09-04T11:01:41;34.00;;;9.73;;
22883;SDS011;13386;24.786;110.488;2022-09-04T11:04:32;19.48;;;6.70;;
22883;SDS011;13386;24.786;110.488;2022-09-04T11:07:22;22.60;;;7.40;;
22883;SDS011;13386;24.786;110.488;2022-09-04T11:10:06;40.72;;;11.50;;
22883;SDS011;13386;24.786;110.488;2022-09-04T11:15:32;30.35;;;8.88;;
22883;SDS011;13386;24.786;110.488;2022-09-04T11:21:08;25.38;;;7.82;;
22883;SDS011;13386;24.786;110.488;2022-09-04T11:24:02;23.17;;;8.23;;
22883;SDS011;13386;24.786;110.488;2022-09-04T11:29:39;17.88;;;6.85;;
22883;SDS011;13386;24.786;110.488;2022-09-04T11:35:11;20.20;;;6.60;;
22883;SDS011;13386;24.786;110.488;2022-09-04T11:38:01;16.50;;;6.28;;
22883;SDS011;13386;24.786;110.488;2022-09-04T11:43:54;18.00;;;6.32;;
22883;SDS011;13386;24.786;110.488;2022-09-04T11:46:44;21.60;;;7.32;;
22883;SDS011;13386;24.786;110.488;2022-09-04T11:52:19;17.25;;;7.00;;
22883;SDS011;13386;24.786;110.488;2022-09-04T11:57:51;18.88;;;7.25;;
22883;SDS011;13386;24.786;110.488;2022-09-04T12:00:26;19.70;;;7.60;;
22883;SDS011;13386;24.786;110.488;2022-09-04T12:03:17;20.38;;;7.80;;
22883;SDS011;13386;24.786;110.488;2022-09-04T12:05:57;22.63;;;7.88;;
22883;SDS011;13386;24.786;110.488;2022-09-04T12:08:42;26.23;;;9.23;;
22883;SDS011;13386;24.786;110.488;2022-09-04T12:11:30;23.10;;;8.40;;
22883;SDS011;13386;24.786;110.488;2022-09-04T12:14:07;21.00;;;7.68;;
22883;SDS011;13386;24.786;110.488;2022-09-04T12:16:51;25.08;;;9.90;;
22883;SDS011;13386;24.786;110.488;2022-09-04T12:25:17;24.58;;;9.27;;
22883;SDS011;13386;24.786;110.488;2022-09-04T12:28:13;24.10;;;9.30;;
22883;SDS011;13386;24.786;110.488;2022-09-04T12:30:53;23.55;;;8.40;;
22883;SDS011;13386;24.786;110.488;2022-09-04T12:42:06;21.77;;;7.90;;
22883;SDS011;13386;24.786;110.488;2022-09-04T12:44:41;24.45;;;8.82;;
22883;SDS011;13386;24.786;110.488;2022-09-04T12:47:18;21.33;;;7.88;;
22883;SDS011;13386;24.786;110.488;2022-09-04T12:50:13;22.15;;;8.02;;
22883;SDS011;13386;24.786;110.488;2022-09-04T12:55:17;14.93;;;7.40;;
22883;SDS011;13386;24.786;110.488;2022-09-04T12:57:55;20.73;;;8.25;;
22883;SDS011;13386;24.786;110.488;2022-09-04T13:00:31;23.67;;;8.23;;
22883;SDS011;13386;24.786;110.488;2022-09-04T13:03:09;20.83;;;7.10;;
22883;SDS011;13386;24.786;110.488;2022-09-04T13:05:51;19.58;;;7.43;;
22883;SDS011;13386;24.786;110.488;2022-09-04T13:08:36;18.60;;;7.60;;
22883;SDS011;13386;24.786;110.488;2022-09-04T13:11:15;19.27;;;8.32;;
22883;SDS011;13386;24.786;110.488;2022-09-04T13:13:51;20.10;;;7.30;;
22883;SDS011;13386;24.786;110.488;2022-09-04T13:16:26;23.77;;;8.50;;
22883;SDS011;13386;24.786;110.488;2022-09-04T13:19:01;25.07;;;9.83;;
22883;SDS011;13386;24.786;110.488;2022-09-04T13:21:40;23.80;;;9.30;;
22883;SDS011;13386;24.786;110.488;2022-09-04T13:24:20;18.52;;;8.20;;
22883;SDS011;13386;24.786;110.488;2022-09-04T13:26:57;21.25;;;8.25;;
22883;SDS011;13386;24.786;110.488;2022-09-04T13:29:38;24.60;;;8.82;;
22883;SDS011;13386;24.786;110.488;2022-09-04T13:32:26;22.77;;;8.63;;
22883;SDS011;13386;24.786;110.488;2022-09-04T13:35:15;29.05;;;9.05;;
22883;SDS011;13386;24.786;110.488;2022-09-04T13:37:55;26.52;;;8.32;;
22883;SDS011;13386;24.786;110.488;2022-09-04T13:40:39;25.42;;;8.15;;
22883;SDS011;13386;24.786;110.488;2022-09-04T13:43:19;24.98;;;9.88;;
22883;SDS011;13386;24.786;110.488;2022-09-04T13:45:52;23.92;;;9.02;;
22883;SDS011;13386;24.786;110.488;2022-09-04T13:48:30;24.30;;;9.23;;
22883;SDS011;13386;24.786;110.488;2022-09-04T13:51:05;25.88;;;9.32;;
22883;SDS011;13386;24.786;110.488;2022-09-04T13:53:38;24.00;;;8.55;;
22883;SDS011;13386;24.786;110.488;2022-09-04T13:56:14;25.25;;;9.18;;
22883;SDS011;13386;24.786;110.488;2022-09-04T13:58:46;25.60;;;8.93;;
22883;SDS011;13386;24.786;110.488;2022-09-04T14:01:20;24.63;;;9.10;;
22883;SDS011;13386;24.786;110.488;2022-09-04T14:03:52;25.83;;;8.80;;
22883;SDS011;13386;24.786;110.488;2022-09-04T14:06:24;21.58;;;8.50;;
22883;SDS011;13386;24.786;110.488;2022-09-04T14:08:56;23.90;;;9.35;;
22883;SDS011;13386;24.786;110.488;2022-09-04T14:14:41;21.77;;;9.63;;
22883;SDS011;13386;24.786;110.488;2022-09-04T14:17:24;24.85;;;9.70;;
22883;SDS011;13386;24.786;110.488;2022-09-04T14:19:57;25.95;;;9.50;;
22883;SDS011;13386;24.786;110.488;2022-09-04T14:22:36;29.92;;;10.40;;
22883;SDS011;13386;24.786;110.488;2022-09-04T14:25:10;28.50;;;9.70;;
22883;SDS011;13386;24.786;110.488;2022-09-04T14:27:46;23.63;;;9.18;;
22883;SDS011;13386;24.786;110.488;2022-09-04T14:30:19;23.98;;;9.00;;
22883;SDS011;13386;24.786;110.488;2022-09-04T14:32:57;22.27;;;8.85;;
22883;SDS011;13386;24.786;110.488;2022-09-04T14:35:33;25.45;;;9.23;;
22883;SDS011;13386;24.786;110.488;2022-09-04T14:38:12;22.42;;;8.45;;
22883;SDS011;13386;24.786;110.488;2022-09-04T14:40:51;20.48;;;8.90;;
22883;SDS011;13386;24.786;110.488;2022-09-04T14:43:26;21.90;;;8.73;;
22883;SDS011;13386;24.786;110.488;2022-09-04T14:46:04;18.27;;;8.32;;
22883;SDS011;13386;24.786;110.488;2022-09-04T14:48:39;18.33;;;8.23;;
22883;SDS011;13386;24.786;110.488;2022-09-04T14:51:16;19.23;;;8.27;;
22883;SDS011;13386;24.786;110.488;2022-09-04T14:54:02;18.77;;;8.68;;
22883;SDS011;13386;24.786;110.488;2022-09-04T14:56:35;22.58;;;8.30;;
22883;SDS011;13386;24.786;110.488;2022-09-04T14:59:11;24.63;;;8.95;;
22883;SDS011;13386;24.786;110.488;2022-09-04T15:01:57;21.92;;;9.43;;
22883;SDS011;13386;24.786;110.488;2022-09-04T15:04:32;21.48;;;8.95;;
22883;SDS011;13386;24.786;110.488;2022-09-04T15:07:16;22.83;;;9.00;;
22883;SDS011;13386;24.786;110.488;2022-09-04T15:12:21;20.25;;;8.15;;
22883;SDS011;13386;24.786;110.488;2022-09-04T15:14:54;19.35;;;8.25;;
22883;SDS011;13386;24.786;110.488;2022-09-04T15:17:28;22.23;;;9.10;;
22883;SDS011;13386;24.786;110.488;2022-09-04T15:20:04;19.40;;;8.10;;
22883;SDS011;13386;24.786;110.488;2022-09-04T15:22:39;20.73;;;8.23;;
22883;SDS011;13386;24.786;110.488;2022-09-04T15:28:00;19.58;;;8.45;;
22883;SDS011;13386;24.786;110.488;2022-09-04T15:33:03;19.88;;;8.38;;
22883;SDS011;13386;24.786;110.488;2022-09-04T15:35:42;20.65;;;8.77;;
22883;SDS011;13386;24.786;110.488;2022-09-04T15:38:13;21.45;;;8.52;;
22883;SDS011;13386;24.786;110.488;2022-09-04T15:40:49;19.90;;;7.88;;
22883;SDS011;13386;24.786;110.488;2022-09-04T15:45:58;23.15;;;8.20;;
22883;SDS011;13386;24.786;110.488;2022-09-04T15:48:34;23.00;;;8.52;;
22883;SDS011;13386;24.786;110.488;2022-09-04T15:51:15;22.83;;;8.43;;
22883;SDS011;13386;24.786;110.488;2022-09-04T15:54:11;23.00;;;8.73;;
22883;SDS011;13386;24.786;110.488;2022-09-04T15:56:57;17.65;;;8.10;;
22883;SDS011;13386;24.786;110.488;2022-09-04T15:59:35;20.13;;;8.30;;
22883;SDS011;13386;24.786;110.488;2022-09-04T16:02:16;21.20;;;8.55;;
22883;SDS011;13386;24.786;110.488;2022-09-04T16:04:49;22.25;;;8.68;;
22883;SDS011;13386;24.786;110.488;2022-09-04T16:07:34;19.88;;;8.80;;
22883;SDS011;13386;24.786;110.488;2022-09-04T16:10:13;21.55;;;8.13;;
22883;SDS011;13386;24.786;110.488;2022-09-04T16:12:55;18.77;;;8.98;;
22883;SDS011;13386;24.786;110.488;2022-09-04T16:15:27;20.73;;;8.85;;
22883;SDS011;13386;24.786;110.488;2022-09-04T16:18:08;20.58;;;8.57;;
22883;SDS011;13386;24.786;110.488;2022-09-04T16:20:46;16.45;;;7.90;;
22883;SDS011;13386;24.786;110.488;2022-09-04T16:23:28;22.50;;;8.90;;
22883;SDS011;13386;24.786;110.488;2022-09-04T16:26:07;22.60;;;8.45;;
22883;SDS011;13386;24.786;110.488;2022-09-04T16:28:38;17.17;;;7.93;;
22883;SDS011;13386;24.786;110.488;2022-09-04T16:31:12;20.58;;;8.10;;
22883;SDS011;13386;24.786;110.488;2022-09-04T16:33:51;20.65;;;8.23;;
22883;SDS011;13386;24.786;110.488;2022-09-04T16:36:25;18.90;;;8.23;;
22883;SDS011;13386;24.786;110.488;2022-09-04T16:39:07;19.00;;;8.43;;
22883;SDS011;13386;24.786;110.488;2022-09-04T16:41:42;17.10;;;7.97;;
22883;SDS011;13386;24.786;110.488;2022-09-04T16:44:17;16.92;;;7.90;;
22883;SDS011;13386;24.786;110.488;2022-09-04T16:46:53;21.10;;;8.00;;
22883;SDS011;13386;24.786;110.488;2022-09-04T16:49:38;18.92;;;8.30;;
22883;SDS011;13386;24.786;110.488;2022-09-04T16:52:27;19.42;;;8.45;;
22883;SDS011;13386;24.786;110.488;2022-09-04T16:55:04;18.30;;;8.18;;
22883;SDS011;13386;24.786;110.488;2022-09-04T16:57:40;19.98;;;8.48;;
22883;SDS011;13386;24.786;110.488;2022-09-04T17:00:11;22.50;;;8.60;;
22883;SDS011;13386;24.786;110.488;2022-09-04T17:02:48;19.15;;;7.85;;
22883;SDS011;13386;24.786;110.488;2022-09-04T17:05:22;19.88;;;8.35;;
22883;SDS011;13386;24.786;110.488;2022-09-04T17:08:03;18.77;;;8.20;;
22883;SDS011;13386;24.786;110.488;2022-09-04T17:10:41;18.38;;;7.72;;
22883;SDS011;13386;24.786;110.488;2022-09-04T17:13:15;19.02;;;7.95;;
22883;SDS011;13386;24.786;110.488;2022-09-04T17:15:51;19.75;;;8.18;;
22883;SDS011;13386;24.786;110.488;2022-09-04T17:18:25;20.80;;;8.35;;
22883;SDS011;13386;24.786;110.488;2022-09-04T17:20:59;18.25;;;7.90;;
22883;SDS011;13386;24.786;110.488;2022-09-04T17:23:33;18.77;;;8.25;;
22883;SDS011;13386;24.786;110.488;2022-09-04T17:26:11;20.83;;;8.48;;
22883;SDS011;13386;24.786;110.488;2022-09-04T17:28:50;20.08;;;8.20;;
22883;SDS011;13386;24.786;110.488;2022-09-04T17:31:25;22.65;;;8.27;;
22883;SDS011;13386;24.786;110.488;2022-09-04T17:34:00;19.60;;;8.13;;
22883;SDS011;13386;24.786;110.488;2022-09-04T17:36:34;16.95;;;7.85;;
22883;SDS011;13386;24.786;110.488;2022-09-04T17:39:10;21.42;;;8.13;;